Time;durP1;ratioP1;P1;durP2;ratioP2;P2;SDS_P1;SDS_P2;PMS_P1;PMS_P2;Temp;Humidity;BMP_temperature;BMP_pressure;BME280_temperature;BME280_humidity;BME280_pressure;Samples;Min_cycle;Max_cycle;Signal;HPM_P1;HPM_P2
2023/03/02 05:04:43;;;;;;;16.83;8.55;;;0.10;99.90;;;;;;5707483;22;20303;-71
2023/03/02 05:07:08;;;;;;;26.67;12.60;;;0.00;99.90;;;;;;5032943;28;20174;-71
2023/03/02 05:09:34;;;;;;;14.20;11.00;;;0.00;99.90;;;;;;5033899;28;20201;-71
2023/03/02 05:12:00;;;;;;;25.90;12.23;;;0.00;99.90;;;;;;5037091;28;20174;-71
2023/03/02 05:14:26;;;;;;;17.45;8.75;;;0.00;99.90;;;;;;5036626;28;20226;-71
2023/03/02 05:16:53;;;;;;;20.13;10.38;;;-0.10;99.90;;;;;;5036888;28;20226;-70
2023/03/02 05:19:18;;;;;;;12.57;7.68;;;0.00;99.90;;;;;;5036775;28;20207;-71
2023/03/02 05:21:45;;;;;;;14.93;10.93;;;-0.10;99.90;;;;;;5035533;28;20167;-71
2023/03/02 05:24:11;;;;;;;25.95;11.93;;;0.00;99.90;;;;;;5036467;28;20194;-71
2023/03/02 05:26:37;;;;;;;16.67;10.90;;;-0.10;99.90;;;;;;5036699;28;20185;-71
2023/03/02 05:29:03;;;;;;;20.53;10.63;;;-0.10;99.90;;;;;;5035389;28;20175;-71
2023/03/02 05:31:33;;;;;;;15.10;10.38;;;-0.10;99.90;;;;;;5036851;28;20179;-71
2023/03/02 05:33:59;;;;;;;17.30;9.35;;;-0.10;99.90;;;;;;5031606;28;20558;-72
2023/03/02 05:36:25;;;;;;;15.82;10.65;;;-0.10;99.90;;;;;;5032183;28;20532;-68
2023/03/02 05:38:51;;;;;;;16.00;9.33;;;0.00;99.90;;;;;;5016456;28;20178;-70
2023/03/02 05:41:16;;;;;;;17.17;9.67;;;0.00;99.90;;;;;;5016358;28;20266;-71
2023/03/02 05:43:42;;;;;;;18.90;10.80;;;0.10;99.90;;;;;;5016226;28;20166;-71
2023/03/02 05:46:08;;;;;;;18.47;11.90;;;0.10;99.90;;;;;;5018365;28;20178;-71
2023/03/02 05:48:34;;;;;;;19.57;9.40;;;0.10;99.90;;;;;;5017113;28;20247;-70
2023/03/02 05:50:59;;;;;;;17.10;9.80;;;0.20;99.90;;;;;;5016338;28;20493;-72
2023/03/02 05:53:25;;;;;;;17.00;9.43;;;0.20;99.90;;;;;;5015167;28;20660;-71
2023/03/02 05:55:51;;;;;;;11.20;8.03;;;0.20;99.90;;;;;;5014923;28;20249;-71
2023/03/02 05:58:18;;;;;;;19.50;11.07;;;0.20;99.90;;;;;;5015032;28;20175;-70
2023/03/02 06:00:46;;;;;;;13.52;10.35;;;0.30;99.90;;;;;;5016072;28;20602;-71
2023/03/02 06:03:11;;;;;;;18.58;11.30;;;0.30;99.90;;;;;;5015813;28;20195;-71
2023/03/02 06:05:37;;;;;;;17.77;11.57;;;0.30;99.90;;;;;;5025131;28;20747;-70
2023/03/02 06:08:03;;;;;;;18.20;10.13;;;0.30;99.90;;;;;;5036125;28;20201;-71
2023/03/02 06:10:29;;;;;;;14.82;9.40;;;0.40;99.90;;;;;;5035071;28;20253;-71
2023/03/02 06:12:55;;;;;;;16.07;10.20;;;0.40;99.90;;;;;;5034657;28;20634;-73
2023/03/02 06:15:20;;;;;;;16.00;9.33;;;0.50;99.90;;;;;;5035791;28;20535;-71
2023/03/02 06:17:46;;;;;;;16.77;10.00;;;0.50;99.90;;;;;;5035713;28;20223;-73
2023/03/02 06:20:12;;;;;;;14.55;9.77;;;0.60;99.90;;;;;;5035378;28;20612;-73
2023/03/02 06:22:45;;;;;;;20.23;11.60;;;0.60;99.90;;;;;;5015185;28;20178;-70
2023/03/02 06:25:15;;;;;;;20.10;14.07;;;0.60;99.90;;;;;;5014140;28;20282;-70
2023/03/02 06:27:42;;;;;;;22.60;13.77;;;0.70;99.90;;;;;;5015821;28;20180;-70
2023/03/02 06:30:12;;;;;;;18.15;11.25;;;0.80;99.90;;;;;;5024090;28;20253;-69
2023/03/02 06:32:37;;;;;;;25.13;11.48;;;0.80;99.90;;;;;;5034213;28;20580;-71
2023/03/02 06:35:04;;;;;;;13.33;8.90;;;0.90;99.90;;;;;;5033065;28;20309;-69
2023/03/02 06:37:30;;;;;;;19.15;11.68;;;0.90;99.90;;;;;;5033197;28;20182;-69
2023/03/02 06:39:57;;;;;;;28.65;11.65;;;1.00;99.90;;;;;;5028796;28;20686;-70
2023/03/02 06:42:24;;;;;;;19.95;11.18;;;1.10;99.90;;;;;;5020834;28;20256;-72
2023/03/02 06:44:50;;;;;;;28.73;12.25;;;1.10;99.90;;;;;;5034027;28;20198;-70
2023/03/02 06:47:17;;;;;;;17.42;11.48;;;1.20;99.90;;;;;;5034554;28;20252;-69
2023/03/02 06:49:42;;;;;;;16.23;11.32;;;1.30;99.90;;;;;;5034859;28;20178;-68
2023/03/02 06:52:09;;;;;;;13.73;10.53;;;1.40;99.90;;;;;;5034588;28;20186;-69
2023/03/02 06:54:35;;;;;;;14.23;9.95;;;1.50;99.90;;;;;;5034375;28;20190;-71
2023/03/02 06:57:01;;;;;;;15.83;10.03;;;1.60;99.90;;;;;;5034952;28;20284;-71
2023/03/02 06:59:27;;;;;;;14.80;9.27;;;1.60;99.90;;;;;;5032097;28;20453;-70
2023/03/02 07:01:52;;;;;;;18.37;12.73;;;1.70;99.90;;;;;;5034771;28;20171;-70
2023/03/02 07:04:18;;;;;;;25.30;11.33;;;1.80;99.90;;;;;;5034079;28;20268;-70
2023/03/02 07:06:43;;;;;;;14.80;9.67;;;1.80;99.90;;;;;;5032219;28;20178;-69
2023/03/02 07:09:09;;;;;;;15.30;9.50;;;1.80;99.90;;;;;;5034865;28;20181;-70
2023/03/02 07:11:34;;;;;;;21.50;11.80;;;1.80;99.90;;;;;;5033480;28;20178;-70
2023/03/02 07:14:01;;;;;;;16.20;9.97;;;1.80;99.90;;;;;;5033426;28;20202;-70
2023/03/02 07:16:26;;;;;;;12.57;10.15;;;1.80;99.90;;;;;;5032286;28;20178;-69
2023/03/02 07:18:52;;;;;;;15.70;10.47;;;1.80;99.90;;;;;;5032261;28;20265;-69
2023/03/02 07:21:17;;;;;;;17.37;12.50;;;1.80;99.90;;;;;;5032983;28;20178;-70
2023/03/02 07:23:43;;;;;;;18.30;10.53;;;1.90;99.90;;;;;;5033482;28;20210;-70
2023/03/02 07:26:09;;;;;;;19.23;12.07;;;1.90;99.90;;;;;;5034288;28;20188;-70
2023/03/02 07:28:38;;;;;;;16.97;11.20;;;2.00;99.90;;;;;;5034234;28;20261;-72
2023/03/02 07:31:04;;;;;;;15.25;10.27;;;2.10;99.90;;;;;;5033103;28;20177;-73
2023/03/02 07:33:30;;;;;;;14.48;11.15;;;2.20;99.90;;;;;;5028987;28;20177;-73
2023/03/02 07:35:55;;;;;;;17.23;9.77;;;2.40;99.90;;;;;;5031040;28;20202;-72
2023/03/02 07:38:21;;;;;;;13.37;9.97;;;2.50;99.90;;;;;;5034220;28;20178;-69
2023/03/02 07:40:47;;;;;;;18.50;9.87;;;2.60;99.90;;;;;;5033832;28;20224;-70
2023/03/02 07:43:12;;;;;;;14.90;9.47;;;2.70;99.90;;;;;;5027648;28;20174;-71
2023/03/02 07:45:38;;;;;;;14.63;9.17;;;2.70;99.90;;;;;;5033385;28;20225;-69
2023/03/02 07:48:04;;;;;;;16.30;8.80;;;2.90;99.90;;;;;;5033574;28;20202;-67
2023/03/02 07:50:30;;;;;;;14.20;11.77;;;2.90;99.90;;;;;;5033119;28;20541;-68
2023/03/02 07:52:56;;;;;;;15.70;9.35;;;3.00;99.90;;;;;;5032872;28;20182;-66
2023/03/02 07:55:22;;;;;;;13.87;9.93;;;3.20;99.90;;;;;;5033647;28;20554;-69
2023/03/02 07:57:47;;;;;;;15.23;9.70;;;3.30;99.90;;;;;;5033006;28;20257;-70
2023/03/02 08:00:14;;;;;;;14.13;10.10;;;3.40;99.90;;;;;;5033766;28;20721;-67
2023/03/02 08:02:40;;;;;;;9.80;8.50;;;3.60;99.90;;;;;;5033105;28;20174;-68
2023/03/02 08:05:06;;;;;;;14.98;9.38;;;3.80;99.90;;;;;;5032523;28;20209;-67
2023/03/02 08:07:32;;;;;;;15.23;10.40;;;4.10;99.90;;;;;;5033543;28;20184;-69
2023/03/02 08:09:59;;;;;;;15.27;9.68;;;4.50;99.90;;;;;;5033263;28;20425;-68
2023/03/02 08:12:25;;;;;;;20.13;11.98;;;5.00;99.90;;;;;;5028223;28;20284;-70
2023/03/02 08:14:51;;;;;;;15.48;10.95;;;5.90;99.90;;;;;;5031883;28;20360;-67
2023/03/02 08:17:17;;;;;;;13.90;10.77;;;6.90;99.90;;;;;;5033206;28;20188;-68
2023/03/02 08:19:43;;;;;;;13.60;9.03;;;7.70;99.90;;;;;;5033069;28;20207;-69
2023/03/02 08:22:10;;;;;;;16.27;10.40;;;8.60;98.50;;;;;;5033264;28;20282;-69
2023/03/02 08:24:36;;;;;;;14.87;9.50;;;9.40;97.70;;;;;;5032582;28;20444;-70
2023/03/02 08:27:02;;;;;;;19.83;11.47;;;10.20;94.70;;;;;;5032703;28;20424;-68
2023/03/02 08:29:29;;;;;;;18.27;10.00;;;10.60;92.90;;;;;;5029802;28;20194;-69
2023/03/02 08:31:54;;;;;;;12.07;8.67;;;10.80;91.80;;;;;;5029090;28;20415;-70
2023/03/02 08:34:20;;;;;;;12.90;9.00;;;11.00;91.10;;;;;;5028292;28;20504;-71
2023/03/02 08:36:46;;;;;;;14.87;9.30;;;11.30;91.10;;;;;;5033163;28;20190;-71
2023/03/02 08:39:12;;;;;;;15.20;10.53;;;11.60;90.30;;;;;;5031003;28;20226;-69
2023/03/02 08:41:37;;;;;;;14.07;10.27;;;12.00;89.80;;;;;;5013848;28;20183;-68
2023/03/02 08:44:03;;;;;;;16.37;10.13;;;12.20;89.10;;;;;;5012362;28;20434;-68
2023/03/02 08:46:29;;;;;;;14.23;10.67;;;12.70;87.10;;;;;;5013439;28;20631;-70
2023/03/02 08:48:55;;;;;;;14.70;10.30;;;13.30;85.40;;;;;;5013290;28;20691;-70
2023/03/02 08:51:23;;;;;;;14.80;9.63;;;13.70;82.90;;;;;;5030009;28;20555;-70
2023/03/02 08:53:50;;;;;;;17.80;9.67;;;13.80;83.50;;;;;;5026927;28;20261;-73
2023/03/02 08:56:34;;;;;;;14.67;10.50;;;14.10;81.50;;;;;;5032460;28;20492;-72
2023/03/02 08:59:02;;;;;;;11.77;9.33;;;14.10;80.70;;;;;;5032027;28;20475;-68
2023/03/02 09:01:33;;;;;;;13.80;10.10;;;14.40;79.50;;;;;;5032222;28;20434;-71
2023/03/02 09:03:59;;;;;;;14.50;10.30;;;14.60;79.40;;;;;;5030258;28;20440;-65
2023/03/02 09:06:26;;;;;;;13.47;9.90;;;14.60;78.60;;;;;;5030457;28;20472;-72
2023/03/02 09:08:52;;;;;;;10.93;8.40;;;14.40;77.30;;;;;;5032109;28;21002;-71
2023/03/02 09:11:18;;;;;;;12.80;9.70;;;14.60;79.80;;;;;;5027503;28;20554;-69
2023/03/02 09:13:44;;;;;;;12.53;9.90;;;15.20;78.70;;;;;;5031183;28;20175;-71
2023/03/02 09:16:11;;;;;;;12.33;9.50;;;15.30;76.10;;;;;;5023120;28;20417;-68
2023/03/02 09:18:36;;;;;;;16.13;10.40;;;15.50;76.00;;;;;;5032317;28;20681;-74
2023/03/02 09:21:03;;;;;;;12.17;9.30;;;15.50;75.10;;;;;;5024597;28;20424;-64
2023/03/02 09:23:28;;;;;;;13.50;9.73;;;15.50;75.10;;;;;;5030579;28;20167;-64
2023/03/02 09:25:54;;;;;;;13.13;10.03;;;15.70;75.20;;;;;;5026333;28;20517;-63
2023/03/02 09:28:21;;;;;;;14.63;10.53;;;16.10;75.60;;;;;;5019759;28;20562;-69
2023/03/02 09:30:51;;;;;;;12.30;10.83;;;16.50;73.50;;;;;;5030607;28;20391;-69
2023/03/02 09:33:18;;;;;;;22.27;12.27;;;16.70;72.50;;;;;;5029236;28;20416;-70
2023/03/02 09:35:44;;;;;;;11.63;9.20;;;16.90;71.80;;;;;;5013928;28;20432;-70
2023/03/02 09:38:14;;;;;;;12.37;9.30;;;17.10;71.80;;;;;;5020374;28;20435;-69
2023/03/02 09:40:55;;;;;;;11.80;9.57;;;17.10;70.60;;;;;;5012077;28;20498;-70
2023/03/02 09:43:33;;;;;;;14.70;9.77;;;16.90;71.00;;;;;;5031602;28;20491;-68
2023/03/02 09:46:15;;;;;;;13.40;10.57;;;16.50;70.30;;;;;;5031211;28;20439;-71
2023/03/02 09:49:31;;;;;;;12.53;10.50;;;16.70;70.60;;;;;;5032120;28;20508;-69
2023/03/02 09:52:29;;;;;;;10.53;9.30;;;16.90;70.70;;;;;;5024708;28;20468;-71
2023/03/02 09:54:56;;;;;;;12.37;9.90;;;16.70;70.80;;;;;;5005997;28;20448;-68
2023/03/02 09:57:27;;;;;;;16.37;11.10;;;16.60;71.10;;;;;;5027056;28;20424;-67
2023/03/02 10:00:10;;;;;;;14.50;10.77;;;16.70;70.10;;;;;;5016930;28;20514;-69
2023/03/02 10:02:46;;;;;;;9.23;8.13;;;16.70;70.60;;;;;;5019720;28;20945;-66
2023/03/02 10:05:27;;;;;;;12.17;9.47;;;16.50;70.40;;;;;;5035164;28;20484;-71
2023/03/02 10:07:52;;;;;;;14.57;10.83;;;16.60;70.80;;;;;;5025874;28;20431;-67
2023/03/02 10:11:12;;;;;;;11.27;9.03;;;16.30;71.70;;;;;;5033450;28;20396;-68
2023/03/02 10:13:59;;;;;;;17.27;10.27;;;16.40;70.50;;;;;;5001975;28;20625;-70
2023/03/02 10:16:37;;;;;;;13.57;9.83;;;16.80;70.20;;;;;;5035665;28;20412;-70
2023/03/02 10:19:18;;;;;;;12.40;8.87;;;16.90;70.00;;;;;;5034351;28;20436;-70
2023/03/02 10:21:46;;;;;;;13.00;10.07;;;16.90;69.70;;;;;;5034372;28;20404;-71
2023/03/02 10:24:56;;;;;;;11.13;9.53;;;16.90;71.20;;;;;;5035176;28;20878;-67
2023/03/02 10:27:38;;;;;;;15.43;9.10;;;17.00;70.60;;;;;;5035714;28;20476;-69
2023/03/02 10:30:27;;;;;;;11.10;9.10;;;16.90;70.20;;;;;;5035660;28;20406;-69
2023/03/02 10:32:55;;;;;;;14.10;9.50;;;16.90;70.30;;;;;;5035145;28;20446;-70
2023/03/02 10:35:26;;;;;;;12.70;10.20;;;16.60;70.20;;;;;;5034071;28;20441;-70
2023/03/02 10:37:58;;;;;;;17.27;10.80;;;16.50;70.60;;;;;;5035519;28;20820;-68
2023/03/02 10:40:40;;;;;;;11.97;9.17;;;16.60;70.40;;;;;;5035434;28;20819;-70
2023/03/02 10:43:19;;;;;;;10.60;8.60;;;16.50;70.00;;;;;;5035150;28;20391;-68
2023/03/02 10:45:45;;;;;;;12.73;8.20;;;16.40;71.10;;;;;;5035195;28;20421;-67
2023/03/02 10:48:13;;;;;;;12.00;9.07;;;16.10;71.50;;;;;;5035218;28;20437;-70
2023/03/02 10:50:40;;;;;;;13.27;9.93;;;15.80;72.00;;;;;;5035265;28;20436;-68
2023/03/02 10:53:14;;;;;;;14.30;8.67;;;15.60;72.80;;;;;;5034757;28;20421;-70
2023/03/02 10:55:48;;;;;;;11.53;8.80;;;15.30;74.10;;;;;;5035036;28;20439;-67
2023/03/02 10:58:30;;;;;;;9.10;7.50;;;15.20;74.20;;;;;;5035169;28;20411;-68
2023/03/02 11:01:01;;;;;;;12.67;8.10;;;15.40;73.70;;;;;;5034960;28;20975;-68
2023/03/02 11:03:28;;;;;;;11.60;9.93;;;15.60;73.20;;;;;;5034518;28;20409;-71
2023/03/02 11:05:54;;;;;;;12.07;8.53;;;15.80;73.60;;;;;;5034484;28;20452;-67
2023/03/02 11:08:23;;;;;;;12.03;9.17;;;16.00;74.30;;;;;;5033731;28;20423;-69
2023/03/02 11:11:02;;;;;;;11.43;9.17;;;16.40;74.40;;;;;;5034710;28;20409;-69
2023/03/02 11:13:34;;;;;;;9.73;8.70;;;16.70;72.60;;;;;;5034414;28;20415;-69
2023/03/02 11:16:17;;;;;;;12.50;8.93;;;16.60;70.80;;;;;;5034762;28;20398;-69
2023/03/02 11:18:49;;;;;;;10.10;8.97;;;16.40;72.20;;;;;;5034608;28;20495;-70
2023/03/02 11:21:36;;;;;;;11.50;8.10;;;16.10;73.70;;;;;;5034917;28;20441;-69
2023/03/02 11:24:20;;;;;;;10.27;8.67;;;16.10;73.40;;;;;;5034195;28;20417;-67
2023/03/02 11:26:53;;;;;;;14.50;9.70;;;15.90;73.30;;;;;;5034464;28;20407;-70
2023/03/02 11:29:34;;;;;;;13.77;8.73;;;15.30;74.40;;;;;;5033056;28;20423;-69
2023/03/02 11:32:23;;;;;;;11.70;8.83;;;14.70;74.70;;;;;;5030156;28;20408;-70
2023/03/02 11:34:55;;;;;;;13.77;8.90;;;13.70;77.50;;;;;;5014185;28;20778;-68
2023/03/02 11:37:24;;;;;;;10.73;7.97;;;13.20;77.90;;;;;;5014675;28;20489;-68
2023/03/02 11:40:08;;;;;;;14.63;8.40;;;12.90;79.60;;;;;;5014402;28;20463;-70
2023/03/02 11:42:40;;;;;;;13.47;10.20;;;12.70;81.20;;;;;;5013469;28;20786;-67
2023/03/02 11:45:12;;;;;;;12.50;8.80;;;12.40;82.10;;;;;;5012728;28;20529;-70
2023/03/02 11:47:41;;;;;;;15.23;10.17;;;12.00;83.40;;;;;;5014516;28;20921;-66
2023/03/02 11:50:11;;;;;;;11.53;8.60;;;11.60;83.80;;;;;;5014206;28;20419;-71
2023/03/02 11:52:40;;;;;;;15.97;8.63;;;11.30;85.40;;;;;;5014625;28;20416;-66
2023/03/02 11:55:15;;;;;;;15.53;9.30;;;11.20;87.30;;;;;;5013721;28;20527;-70
2023/03/02 11:57:48;;;;;;;15.10;7.70;;;11.20;87.40;;;;;;5014090;28;20488;-66
2023/03/02 12:00:33;;;;;;;12.23;7.87;;;11.10;88.20;;;;;;5014067;28;20912;-70
2023/03/02 12:03:14;;;;;;;14.20;8.27;;;11.00;88.80;;;;;;5013740;28;20404;-67
2023/03/02 12:05:42;;;;;;;10.57;7.57;;;10.70;88.30;;;;;;5013993;28;20440;-69
2023/03/02 12:08:30;;;;;;;14.20;7.97;;;10.50;89.10;;;;;;5013775;28;20424;-71
2023/03/02 12:10:57;;;;;;;13.47;8.80;;;10.50;90.20;;;;;;5013931;28;20421;-67
2023/03/02 12:13:38;;;;;;;11.90;7.40;;;10.60;90.00;;;;;;5013676;28;20412;-71
2023/03/02 12:16:22;;;;;;;9.63;7.30;;;10.60;89.70;;;;;;5013780;28;20802;-66
2023/03/02 12:18:49;;;;;;;11.80;8.27;;;10.50;90.40;;;;;;5014041;28;20440;-68
2023/03/02 12:21:16;;;;;;;10.93;8.47;;;10.50;90.70;;;;;;5013442;28;20464;-69
2023/03/02 12:23:48;;;;;;;10.37;7.17;;;10.50;90.10;;;;;;5013246;28;20438;-63
2023/03/02 12:26:19;;;;;;;11.70;8.40;;;10.50;90.70;;;;;;5013712;28;20482;-67
2023/03/02 12:29:21;;;;;;;9.37;7.30;;;10.50;90.90;;;;;;5013649;28;20926;-71
2023/03/02 12:31:48;;;;;;;12.87;8.57;;;10.70;91.00;;;;;;5016514;28;20409;-70
2023/03/02 12:34:23;;;;;;;12.23;9.13;;;10.90;91.00;;;;;;5032717;28;20430;-68
2023/03/02 12:36:57;;;;;;;20.63;8.30;;;10.90;90.90;;;;;;5033182;28;20401;-68
2023/03/02 12:40:00;;;;;;;12.40;7.90;;;10.90;90.70;;;;;;5029211;28;20465;-68
2023/03/02 12:42:48;;;;;;;16.17;7.20;;;11.00;91.50;;;;;;5013312;28;20419;-69
2023/03/02 12:45:29;;;;;;;9.80;7.07;;;11.10;90.30;;;;;;5029184;28;20976;-71
2023/03/02 12:48:03;;;;;;;9.10;7.70;;;11.00;90.40;;;;;;5033069;28;20417;-71
2023/03/02 12:50:36;;;;;;;11.60;7.80;;;11.00;90.30;;;;;;5016795;28;20477;-71
2023/03/02 12:53:05;;;;;;;11.30;7.73;;;11.00;90.50;;;;;;5011691;28;20792;-67
2023/03/02 12:55:33;;;;;;;18.00;8.57;;;11.10;90.50;;;;;;5013090;28;20501;-70
2023/03/02 12:58:00;;;;;;;11.10;7.93;;;11.20;90.90;;;;;;5018689;28;20465;-71
2023/03/02 13:00:34;;;;;;;14.10;7.93;;;11.30;91.10;;;;;;5032363;28;20787;-71
2023/03/02 13:03:08;;;;;;;12.30;7.00;;;11.30;90.80;;;;;;5011659;28;20411;-72
2023/03/02 13:05:35;;;;;;;9.10;7.37;;;11.20;90.40;;;;;;5012980;28;20953;-70
2023/03/02 13:08:03;;;;;;;9.90;7.03;;;11.20;90.40;;;;;;5010169;28;20939;-68
2023/03/02 13:10:42;;;;;;;10.20;7.57;;;11.20;90.60;;;;;;5021500;28;20427;-72
2023/03/02 13:13:23;;;;;;;16.47;8.40;;;11.20;90.80;;;;;;5028058;28;20474;-70
2023/03/02 13:15:50;;;;;;;10.33;8.00;;;11.20;90.30;;;;;;5025045;28;20825;-69
2023/03/02 13:18:17;;;;;;;10.00;7.70;;;11.20;90.60;;;;;;5032687;28;20460;-71
2023/03/02 13:20:43;;;;;;;11.90;7.30;;;11.20;90.80;;;;;;5032276;28;20973;-71
2023/03/02 13:23:13;;;;;;;11.17;7.53;;;11.30;90.80;;;;;;5032326;28;20418;-71
2023/03/02 13:25:48;;;;;;;11.30;7.70;;;11.30;91.10;;;;;;5022128;28;20538;-70
2023/03/02 13:28:43;;;;;;;10.00;6.33;;;11.30;90.90;;;;;;5013037;28;20759;-69
2023/03/02 13:31:23;;;;;;;8.70;7.60;;;11.40;91.00;;;;;;5018985;28;20440;-69
2023/03/02 13:33:51;;;;;;;10.90;6.53;;;11.40;90.80;;;;;;5015113;28;20995;-70
2023/03/02 13:36:19;;;;;;;12.03;6.67;;;11.40;90.80;;;;;;5015066;28;20416;-70
2023/03/02 13:38:48;;;;;;;9.60;6.70;;;11.40;90.60;;;;;;5016412;28;20408;-71
2023/03/02 13:41:24;;;;;;;11.80;7.40;;;11.40;90.80;;;;;;5022127;28;20535;-70
2023/03/02 13:43:49;;;;;;;16.00;6.70;;;11.40;90.50;;;;;;5015946;28;20407;-70
2023/03/02 13:46:15;;;;;;;8.53;6.83;;;11.50;90.90;;;;;;5016341;28;20488;-70
2023/03/02 13:48:51;;;;;;;10.87;7.50;;;11.50;91.00;;;;;;5022127;28;20181;-71
2023/03/02 13:51:18;;;;;;;8.70;6.63;;;11.60;90.70;;;;;;5034690;28;20236;-72
2023/03/02 13:53:57;;;;;;;9.90;8.60;;;11.70;90.70;;;;;;5034988;28;20426;-72
2023/03/02 13:56:28;;;;;;;8.60;6.73;;;11.70;90.40;;;;;;5034086;28;20923;-73
2023/03/02 13:58:54;;;;;;;10.77;7.37;;;11.70;90.30;;;;;;5035602;28;20848;-71
2023/03/02 14:01:20;;;;;;;9.73;7.13;;;11.60;90.50;;;;;;5035756;28;20434;-73
2023/03/02 14:03:46;;;;;;;10.20;7.03;;;11.60;90.70;;;;;;5035688;28;20451;-68
2023/03/02 14:06:11;;;;;;;12.47;8.97;;;11.60;90.70;;;;;;5035413;28;20193;-70
2023/03/02 14:08:37;;;;;;;8.20;6.77;;;11.60;90.70;;;;;;5033663;28;20181;-72
2023/03/02 14:11:04;;;;;;;12.03;7.00;;;11.60;90.90;;;;;;5035740;28;20299;-71
2023/03/02 14:13:36;;;;;;;14.20;7.90;;;11.60;90.90;;;;;;5035965;28;20414;-71
2023/03/02 14:16:02;;;;;;;11.67;7.40;;;11.60;90.90;;;;;;5035871;28;20420;-69
2023/03/02 14:18:40;;;;;;;8.27;5.80;;;11.70;90.80;;;;;;5035929;28;20410;-72
2023/03/02 14:21:34;;;;;;;11.47;7.50;;;11.70;90.60;;;;;;5036322;28;20454;-69
2023/03/02 14:24:00;;;;;;;13.77;8.20;;;11.80;90.90;;;;;;5033530;28;20439;-69
2023/03/02 14:26:34;;;;;;;8.67;6.67;;;11.80;90.60;;;;;;5036508;28;20430;-66
2023/03/02 14:29:05;;;;;;;12.27;8.27;;;11.80;90.70;;;;;;5035945;28;20231;-70
2023/03/02 14:31:31;;;;;;;18.80;7.93;;;11.80;90.60;;;;;;5035870;28;20872;-71
2023/03/02 14:33:57;;;;;;;12.27;7.40;;;11.80;90.60;;;;;;5033434;28;20526;-67
2023/03/02 14:36:27;;;;;;;14.13;9.40;;;11.80;90.60;;;;;;5036119;28;20899;-67
2023/03/02 14:38:55;;;;;;;8.90;7.50;;;11.80;90.60;;;;;;5035074;28;20231;-67
2023/03/02 14:41:23;;;;;;;9.73;7.43;;;11.80;90.60;;;;;;5035033;28;20452;-66
2023/03/02 14:43:49;;;;;;;10.23;7.73;;;11.80;90.70;;;;;;5033705;28;20820;-66
2023/03/02 14:46:15;;;;;;;11.33;8.30;;;11.90;90.60;;;;;;5034959;28;20475;-66
2023/03/02 14:48:41;;;;;;;13.70;9.00;;;12.00;90.50;;;;;;5033472;28;20424;-66
2023/03/02 14:51:28;;;;;;;12.50;7.30;;;12.00;90.70;;;;;;5035039;28;20413;-67
2023/03/02 14:53:56;;;;;;;8.80;6.20;;;12.00;90.60;;;;;;5034481;28;20199;-66
2023/03/02 14:56:22;;;;;;;12.20;8.13;;;12.00;90.40;;;;;;5034811;28;20427;-65
2023/03/02 14:58:49;;;;;;;9.43;7.43;;;11.90;90.50;;;;;;5035272;28;20408;-66
2023/03/02 15:01:15;;;;;;;8.30;7.40;;;11.90;90.40;;;;;;5034654;28;20201;-64
2023/03/02 15:03:41;;;;;;;7.70;5.90;;;11.90;90.40;;;;;;5034529;28;20533;-67
2023/03/02 15:06:19;;;;;;;9.70;7.43;;;11.90;90.40;;;;;;5034887;28;20464;-65
2023/03/02 15:08:44;;;;;;;16.00;9.10;;;11.80;90.50;;;;;;5034951;28;20175;-66
2023/03/02 15:11:10;;;;;;;10.07;8.27;;;11.80;90.50;;;;;;5034870;28;20503;-65
2023/03/02 15:13:35;;;;;;;15.23;10.40;;;11.80;90.60;;;;;;5033846;28;20181;-66
2023/03/02 15:16:01;;;;;;;14.80;9.20;;;11.80;90.50;;;;;;5034366;28;20177;-65
2023/03/02 15:18:27;;;;;;;11.80;7.97;;;11.80;90.60;;;;;;5033477;28;20179;-66
2023/03/02 15:20:52;;;;;;;11.23;7.50;;;11.80;90.70;;;;;;5034411;28;20283;-66
2023/03/02 15:23:18;;;;;;;12.23;8.27;;;11.80;90.60;;;;;;5033921;28;20173;-66
2023/03/02 15:25:43;;;;;;;11.20;7.40;;;11.70;90.80;;;;;;5034439;28;20673;-65
2023/03/02 15:28:09;;;;;;;10.20;6.97;;;11.60;90.90;;;;;;5034265;28;20246;-65
2023/03/02 15:30:35;;;;;;;10.07;7.10;;;11.60;91.00;;;;;;5034593;28;20210;-66
2023/03/02 15:33:00;;;;;;;11.57;7.33;;;11.50;91.40;;;;;;5033650;28;20905;-66
2023/03/02 15:35:27;;;;;;;12.80;6.70;;;11.50;91.20;;;;;;5034139;28;20670;-65
2023/03/02 15:37:56;;;;;;;10.83;8.20;;;11.40;91.40;;;;;;5034000;28;20168;-66
2023/03/02 15:40:22;;;;;;;11.57;7.17;;;11.30;91.40;;;;;;5034035;28;20462;-66
2023/03/02 15:42:48;;;;;;;9.93;6.50;;;11.30;91.50;;;;;;5033708;28;20426;-65
2023/03/02 15:45:14;;;;;;;11.17;6.67;;;11.30;91.50;;;;;;5033539;28;20193;-65
2023/03/02 15:47:39;;;;;;;11.40;7.40;;;11.30;91.60;;;;;;5033486;28;20175;-65
2023/03/02 15:50:05;;;;;;;11.00;7.20;;;11.20;91.50;;;;;;5033788;28;20184;-66
2023/03/02 15:52:30;;;;;;;9.90;8.27;;;11.20;91.60;;;;;;5033882;28;20185;-66
2023/03/02 15:54:56;;;;;;;10.83;7.97;;;11.20;91.70;;;;;;5032858;28;20655;-66
2023/03/02 15:57:22;;;;;;;8.23;7.07;;;11.10;91.80;;;;;;5033740;28;20254;-66
2023/03/02 15:59:47;;;;;;;11.60;7.23;;;11.10;91.80;;;;;;5032725;28;20207;-66
2023/03/02 16:02:14;;;;;;;8.87;7.13;;;11.00;91.90;;;;;;5033708;28;20167;-66
2023/03/02 16:04:39;;;;;;;11.70;7.97;;;11.00;92.20;;;;;;5032929;28;20689;-66
2023/03/02 16:07:05;;;;;;;15.40;6.77;;;10.90;92.10;;;;;;5033919;28;20425;-66
2023/03/02 16:09:30;;;;;;;9.83;7.13;;;10.90;92.20;;;;;;5033889;28;20675;-66
2023/03/02 16:11:56;;;;;;;12.50;7.20;;;10.90;92.20;;;;;;5033917;28;20178;-66
2023/03/02 16:14:22;;;;;;;10.30;7.77;;;10.80;92.20;;;;;;5033154;28;20206;-66
2023/03/02 16:16:48;;;;;;;11.63;7.23;;;10.70;92.40;;;;;;5033243;28;20183;-66
2023/03/02 16:19:16;;;;;;;9.53;7.27;;;10.70;92.60;;;;;;5033145;28;20421;-66
2023/03/02 16:21:42;;;;;;;8.60;6.57;;;10.50;92.60;;;;;;5032271;28;20170;-66
2023/03/02 16:24:08;;;;;;;7.50;6.43;;;10.40;92.80;;;;;;5033178;28;20191;-66
2023/03/02 16:26:36;;;;;;;10.95;7.93;;;10.40;92.80;;;;;;5033523;28;20796;-66
2023/03/02 16:29:04;;;;;;;9.15;6.90;;;10.30;93.00;;;;;;5033039;28;20182;-66
2023/03/02 16:31:31;;;;;;;9.27;6.18;;;10.20;93.40;;;;;;5033226;28;20194;-66
2023/03/02 16:33:58;;;;;;;8.23;7.32;;;10.10;93.50;;;;;;5032608;28;20190;-66
2023/03/02 16:36:25;;;;;;;18.50;9.73;;;10.10;93.60;;;;;;5033558;28;20162;-66
2023/03/02 16:38:51;;;;;;;13.75;8.68;;;10.00;93.80;;;;;;5033123;28;20209;-66
2023/03/02 16:41:21;;;;;;;13.68;7.88;;;9.90;94.50;;;;;;5028072;28;20566;-66
2023/03/02 16:43:57;;;;;;;14.55;9.20;;;9.90;94.50;;;;;;5032385;28;20672;-66
2023/03/02 16:46:26;;;;;;;9.15;7.30;;;9.80;94.60;;;;;;5033469;28;20574;-66
2023/03/02 16:48:52;;;;;;;14.18;8.18;;;9.70;94.90;;;;;;5032857;28;20219;-67
2023/03/02 16:51:18;;;;;;;10.45;7.50;;;9.60;95.10;;;;;;5033265;28;20194;-66
2023/03/02 16:53:44;;;;;;;9.70;7.60;;;9.50;95.20;;;;;;5032604;28;20189;-66
2023/03/02 16:56:11;;;;;;;8.32;6.65;;;9.40;95.30;;;;;;5032650;28;20178;-66
2023/03/02 16:58:38;;;;;;;10.65;7.90;;;9.40;95.40;;;;;;5034696;28;20174;-66
2023/03/02 17:01:09;;;;;;;10.88;7.47;;;9.30;95.60;;;;;;5032747;28;20233;-67
2023/03/02 17:03:35;;;;;;;9.88;7.32;;;9.30;95.90;;;;;;5032457;28;20177;-66
2023/03/02 17:06:02;;;;;;;9.13;7.03;;;9.30;96.00;;;;;;5034732;28;20641;-66
2023/03/02 17:08:27;;;;;;;7.90;6.53;;;9.20;95.90;;;;;;5036948;28;20614;-65
2023/03/02 17:10:53;;;;;;;12.13;7.17;;;9.30;95.90;;;;;;5036620;28;20185;-67
2023/03/02 17:13:19;;;;;;;10.37;7.03;;;9.20;95.90;;;;;;5036323;28;20178;-65
2023/03/02 17:15:44;;;;;;;9.47;8.47;;;9.20;96.10;;;;;;5030723;28;20284;-65
2023/03/02 17:18:10;;;;;;;9.43;6.73;;;9.20;96.30;;;;;;5021648;28;20178;-72
2023/03/02 17:20:36;;;;;;;12.83;7.97;;;9.20;96.20;;;;;;5030467;28;20206;-66
2023/03/02 17:23:02;;;;;;;10.43;9.30;;;9.10;96.30;;;;;;5036341;28;20178;-66
2023/03/02 17:25:28;;;;;;;9.85;8.90;;;9.20;96.30;;;;;;5036688;28;20429;-65
2023/03/02 17:27:54;;;;;;;10.17;8.00;;;9.10;96.30;;;;;;5036175;28;20192;-63
2023/03/02 17:30:20;;;;;;;11.80;8.33;;;9.10;96.30;;;;;;5035476;28;20423;-67
2023/03/02 17:32:45;;;;;;;12.40;8.50;;;9.10;96.70;;;;;;5027625;28;20422;-65
2023/03/02 17:35:12;;;;;;;10.30;7.63;;;9.10;96.50;;;;;;5033119;28;20444;-68
2023/03/02 17:37:38;;;;;;;9.00;6.47;;;9.10;96.40;;;;;;5033041;28;20227;-66
2023/03/02 17:40:04;;;;;;;9.80;6.43;;;9.10;96.30;;;;;;5032307;28;20288;-62
2023/03/02 17:42:30;;;;;;;12.20;8.35;;;9.10;96.30;;;;;;5033742;28;20405;-72
2023/03/02 17:44:56;;;;;;;12.47;7.73;;;9.00;96.30;;;;;;5034419;28;20205;-70
2023/03/02 17:47:21;;;;;;;9.43;6.83;;;9.00;96.30;;;;;;5028485;28;20294;-68
2023/03/02 17:49:47;;;;;;;9.97;8.33;;;9.00;96.30;;;;;;5036222;28;20181;-68
2023/03/02 17:52:15;;;;;;;9.63;8.03;;;9.00;96.50;;;;;;5032305;28;20181;-70
2023/03/02 17:54:42;;;;;;;15.50;8.93;;;8.90;96.40;;;;;;5026291;28;20609;-69
2023/03/02 17:57:08;;;;;;;10.55;7.65;;;8.90;96.60;;;;;;5036153;28;20630;-70